sensor_id;sensor_type;location;lat;lon;timestamp;P1;durP1;ratioP1;P2;durP2;ratioP2
81656;SDS011;71067;51.482;-0.580;2024-02-04T00:01:15;2.17;;;0.90;;
81656;SDS011;71067;51.482;-0.580;2024-02-04T00:03:40;1.98;;;0.85;;
81656;SDS011;71067;51.482;-0.580;2024-02-04T00:06:06;1.77;;;0.82;;
81656;SDS011;71067;51.482;-0.580;2024-02-04T00:08:35;2.13;;;1.10;;
81656;SDS011;71067;51.482;-0.580;2024-02-04T00:11:00;1.67;;;0.80;;
81656;SDS011;71067;51.482;-0.580;2024-02-04T00:13:29;2.13;;;0.88;;
81656;SDS011;71067;51.482;-0.580;2024-02-04T00:15:57;1.95;;;0.95;;
81656;SDS011;71067;51.482;-0.580;2024-02-04T00:18:24;2.55;;;0.90;;
81656;SDS011;71067;51.482;-0.580;2024-02-04T00:20:52;1.63;;;1.00;;
81656;SDS011;71067;51.482;-0.580;2024-02-04T00:23:17;3.03;;;1.00;;
81656;SDS011;71067;51.482;-0.580;2024-02-04T00:25:48;2.00;;;0.88;;
81656;SDS011;71067;51.482;-0.580;2024-02-04T00:28:14;2.00;;;0.80;;
81656;SDS011;71067;51.482;-0.580;2024-02-04T00:30:39;2.40;;;1.10;;
81656;SDS011;71067;51.482;-0.580;2024-02-04T00:33:05;3.13;;;0.90;;
81656;SDS011;71067;51.482;-0.580;2024-02-04T00:35:30;1.80;;;0.90;;
81656;SDS011;71067;51.482;-0.580;2024-02-04T00:37:56;1.70;;;0.98;;
81656;SDS011;71067;51.482;-0.580;2024-02-04T00:40:23;2.47;;;0.90;;
81656;SDS011;71067;51.482;-0.580;2024-02-04T00:42:54;3.15;;;1.00;;
81656;SDS011;71067;51.482;-0.580;2024-02-04T00:45:19;2.75;;;0.90;;
81656;SDS011;71067;51.482;-0.580;2024-02-04T00:47:48;1.80;;;1.00;;
81656;SDS011;71067;51.482;-0.580;2024-02-04T00:50:13;2.92;;;1.30;;
81656;SDS011;71067;51.482;-0.580;2024-02-04T00:52:48;2.25;;;0.98;;
81656;SDS011;71067;51.482;-0.580;2024-02-04T00:55:16;2.88;;;1.13;;
81656;SDS011;71067;51.482;-0.580;2024-02-04T00:57:57;2.00;;;1.10;;
81656;SDS011;71067;51.482;-0.580;2024-02-04T01:00:26;1.88;;;0.95;;
81656;SDS011;71067;51.482;-0.580;2024-02-04T01:02:52;2.65;;;1.00;;
81656;SDS011;71067;51.482;-0.580;2024-02-04T01:05:17;1.67;;;1.00;;
81656;SDS011;71067;51.482;-0.580;2024-02-04T01:07:43;1.73;;;1.02;;
81656;SDS011;71067;51.482;-0.580;2024-02-04T01:10:11;1.77;;;1.00;;
81656;SDS011;71067;51.482;-0.580;2024-02-04T01:12:40;1.60;;;0.98;;
81656;SDS011;71067;51.482;-0.580;2024-02-04T01:15:23;2.00;;;1.00;;
81656;SDS011;71067;51.482;-0.580;2024-02-04T01:17:52;2.22;;;0.90;;
81656;SDS011;71067;51.482;-0.580;2024-02-04T01:20:18;1.30;;;0.77;;
81656;SDS011;71067;51.482;-0.580;2024-02-04T01:22:43;1.35;;;0.73;;
81656;SDS011;71067;51.482;-0.580;2024-02-04T01:25:09;2.80;;;0.70;;
81656;SDS011;71067;51.482;-0.580;2024-02-04T01:27:34;1.75;;;0.55;;
81656;SDS011;71067;51.482;-0.580;2024-02-04T01:30:03;1.50;;;0.52;;
81656;SDS011;71067;51.482;-0.580;2024-02-04T01:32:29;1.15;;;0.60;;
81656;SDS011;71067;51.482;-0.580;2024-02-04T01:34:56;1.10;;;0.50;;
81656;SDS011;71067;51.482;-0.580;2024-02-04T01:37:22;2.00;;;0.73;;
81656;SDS011;71067;51.482;-0.580;2024-02-04T01:39:48;1.10;;;0.50;;
81656;SDS011;71067;51.482;-0.580;2024-02-04T01:42:13;1.95;;;0.50;;
81656;SDS011;71067;51.482;-0.580;2024-02-04T01:44:39;1.40;;;0.43;;
81656;SDS011;71067;51.482;-0.580;2024-02-04T01:47:04;1.17;;;0.50;;
81656;SDS011;71067;51.482;-0.580;2024-02-04T01:49:30;1.42;;;0.30;;
81656;SDS011;71067;51.482;-0.580;2024-02-04T01:51:55;1.00;;;0.35;;
81656;SDS011;71067;51.482;-0.580;2024-02-04T01:54:22;0.80;;;0.30;;
81656;SDS011;71067;51.482;-0.580;2024-02-04T01:56:50;1.15;;;0.38;;
81656;SDS011;71067;51.482;-0.580;2024-02-04T01:59:18;1.35;;;0.40;;
81656;SDS011;71067;51.482;-0.580;2024-02-04T02:01:45;1.00;;;0.30;;
81656;SDS011;71067;51.482;-0.580;2024-02-04T02:04:11;0.90;;;0.32;;
81656;SDS011;71067;51.482;-0.580;2024-02-04T02:06:39;1.25;;;0.40;;
81656;SDS011;71067;51.482;-0.580;2024-02-04T02:09:07;0.80;;;0.40;;
81656;SDS011;71067;51.482;-0.580;2024-02-04T02:11:46;1.02;;;0.40;;
81656;SDS011;71067;51.482;-0.580;2024-02-04T02:14:19;1.02;;;0.45;;
81656;SDS011;71067;51.482;-0.580;2024-02-04T02:16:51;0.60;;;0.30;;
81656;SDS011;71067;51.482;-0.580;2024-02-04T02:24:53;0.90;;;0.35;;
81656;SDS011;71067;51.482;-0.580;2024-02-04T02:27:21;0.82;;;0.40;;
81656;SDS011;71067;51.482;-0.580;2024-02-04T02:29:46;0.68;;;0.30;;
81656;SDS011;71067;51.482;-0.580;2024-02-04T02:32:12;0.80;;;0.30;;
81656;SDS011;71067;51.482;-0.580;2024-02-04T02:34:37;2.00;;;0.50;;
81656;SDS011;71067;51.482;-0.580;2024-02-04T02:42:33;2.30;;;0.50;;
81656;SDS011;71067;51.482;-0.580;2024-02-04T02:45:01;0.55;;;0.35;;
81656;SDS011;71067;51.482;-0.580;2024-02-04T02:47:28;0.93;;;0.30;;
81656;SDS011;71067;51.482;-0.580;2024-02-04T02:49:54;1.20;;;0.50;;
81656;SDS011;71067;51.482;-0.580;2024-02-04T02:52:20;1.10;;;0.40;;
81656;SDS011;71067;51.482;-0.580;2024-02-04T02:54:46;1.20;;;0.40;;
81656;SDS011;71067;51.482;-0.580;2024-02-04T02:57:11;0.60;;;0.30;;
81656;SDS011;71067;51.482;-0.580;2024-02-04T02:59:37;1.20;;;0.50;;
81656;SDS011;71067;51.482;-0.580;2024-02-04T03:02:02;1.45;;;0.40;;
81656;SDS011;71067;51.482;-0.580;2024-02-04T03:04:27;0.90;;;0.40;;
81656;SDS011;71067;51.482;-0.580;2024-02-04T03:06:53;0.80;;;0.40;;
81656;SDS011;71067;51.482;-0.580;2024-02-04T03:09:18;1.00;;;0.40;;
81656;SDS011;71067;51.482;-0.580;2024-02-04T03:11:43;1.10;;;0.57;;
81656;SDS011;71067;51.482;-0.580;2024-02-04T03:14:11;1.00;;;0.43;;
81656;SDS011;71067;51.482;-0.580;2024-02-04T03:16:37;0.90;;;0.43;;
81656;SDS011;71067;51.482;-0.580;2024-02-04T03:19:04;0.80;;;0.40;;
81656;SDS011;71067;51.482;-0.580;2024-02-04T03:21:31;0.95;;;0.38;;
81656;SDS011;71067;51.482;-0.580;2024-02-04T03:23:56;1.38;;;0.40;;
81656;SDS011;71067;51.482;-0.580;2024-02-04T03:26:21;1.10;;;0.40;;
81656;SDS011;71067;51.482;-0.580;2024-02-04T03:28:47;1.02;;;0.47;;
81656;SDS011;71067;51.482;-0.580;2024-02-04T03:31:18;1.65;;;0.40;;
81656;SDS011;71067;51.482;-0.580;2024-02-04T03:33:48;0.90;;;0.40;;
81656;SDS011;71067;51.482;-0.580;2024-02-04T03:36:18;1.98;;;0.40;;
81656;SDS011;71067;51.482;-0.580;2024-02-04T03:38:45;1.98;;;0.50;;
81656;SDS011;71067;51.482;-0.580;2024-02-04T03:41:13;2.15;;;0.40;;
81656;SDS011;71067;51.482;-0.580;2024-02-04T03:43:41;1.73;;;0.90;;
81656;SDS011;71067;51.482;-0.580;2024-02-04T03:46:11;2.30;;;0.60;;
81656;SDS011;71067;51.482;-0.580;2024-02-04T03:48:38;1.13;;;0.50;;
81656;SDS011;71067;51.482;-0.580;2024-02-04T03:51:03;2.35;;;0.60;;
81656;SDS011;71067;51.482;-0.580;2024-02-04T03:53:32;1.52;;;0.60;;
81656;SDS011;71067;51.482;-0.580;2024-02-04T03:55:58;1.00;;;0.50;;
81656;SDS011;71067;51.482;-0.580;2024-02-04T03:58:23;1.67;;;0.40;;
81656;SDS011;71067;51.482;-0.580;2024-02-04T04:00:57;1.95;;;0.70;;
81656;SDS011;71067;51.482;-0.580;2024-02-04T04:03:22;1.90;;;0.70;;
81656;SDS011;71067;51.482;-0.580;2024-02-04T04:05:48;1.58;;;0.60;;
81656;SDS011;71067;51.482;-0.580;2024-02-04T04:08:14;1.98;;;0.65;;
81656;SDS011;71067;51.482;-0.580;2024-02-04T04:10:39;2.08;;;0.88;;
81656;SDS011;71067;51.482;-0.580;2024-02-04T04:13:05;3.85;;;0.70;;
81656;SDS011;71067;51.482;-0.580;2024-02-04T04:15:30;2.33;;;0.70;;
81656;SDS011;71067;51.482;-0.580;2024-02-04T04:17:55;1.38;;;0.70;;
81656;SDS011;71067;51.482;-0.580;2024-02-04T04:20:21;1.88;;;0.68;;
81656;SDS011;71067;51.482;-0.580;2024-02-04T04:22:54;2.80;;;0.75;;
81656;SDS011;71067;51.482;-0.580;2024-02-04T04:25:19;3.80;;;0.80;;
81656;SDS011;71067;51.482;-0.580;2024-02-04T04:27:45;1.45;;;0.70;;
81656;SDS011;71067;51.482;-0.580;2024-02-04T04:30:10;1.17;;;0.47;;
81656;SDS011;71067;51.482;-0.580;2024-02-04T04:32:36;2.45;;;0.63;;
81656;SDS011;71067;51.482;-0.580;2024-02-04T04:35:01;2.95;;;0.70;;
81656;SDS011;71067;51.482;-0.580;2024-02-04T04:37:26;2.90;;;1.00;;
81656;SDS011;71067;51.482;-0.580;2024-02-04T04:39:52;1.45;;;0.60;;
81656;SDS011;71067;51.482;-0.580;2024-02-04T04:42:17;1.55;;;0.60;;
81656;SDS011;71067;51.482;-0.580;2024-02-04T04:44:43;1.75;;;0.80;;
81656;SDS011;71067;51.482;-0.580;2024-02-04T04:47:08;1.98;;;0.70;;
81656;SDS011;71067;51.482;-0.580;2024-02-04T04:49:34;1.30;;;0.60;;
81656;SDS011;71067;51.482;-0.580;2024-02-04T04:51:59;3.33;;;0.57;;
81656;SDS011;71067;51.482;-0.580;2024-02-04T04:54:25;1.90;;;0.55;;
81656;SDS011;71067;51.482;-0.580;2024-02-04T04:56:52;1.20;;;0.60;;
81656;SDS011;71067;51.482;-0.580;2024-02-04T04:59:17;1.10;;;0.50;;
81656;SDS011;71067;51.482;-0.580;2024-02-04T05:01:46;2.05;;;0.70;;
81656;SDS011;71067;51.482;-0.580;2024-02-04T05:04:12;1.10;;;0.50;;
81656;SDS011;71067;51.482;-0.580;2024-02-04T05:06:38;1.55;;;0.40;;
81656;SDS011;71067;51.482;-0.580;2024-02-04T05:09:03;1.15;;;0.40;;
81656;SDS011;71067;51.482;-0.580;2024-02-04T05:11:28;1.40;;;0.43;;
81656;SDS011;71067;51.482;-0.580;2024-02-04T05:13:54;1.10;;;0.43;;
81656;SDS011;71067;51.482;-0.580;2024-02-04T05:16:19;1.15;;;0.40;;
81656;SDS011;71067;51.482;-0.580;2024-02-04T05:18:46;1.48;;;0.47;;
81656;SDS011;71067;51.482;-0.580;2024-02-04T05:21:11;1.80;;;0.50;;
81656;SDS011;71067;51.482;-0.580;2024-02-04T05:23:37;1.42;;;0.52;;
81656;SDS011;71067;51.482;-0.580;2024-02-04T05:26:05;0.90;;;0.50;;
81656;SDS011;71067;51.482;-0.580;2024-02-04T05:28:31;1.60;;;0.40;;
81656;SDS011;71067;51.482;-0.580;2024-02-04T05:30:57;0.95;;;0.38;;
81656;SDS011;71067;51.482;-0.580;2024-02-04T05:33:22;1.23;;;0.40;;
81656;SDS011;71067;51.482;-0.580;2024-02-04T05:35:48;1.23;;;0.35;;
81656;SDS011;71067;51.482;-0.580;2024-02-04T05:38:13;2.03;;;0.40;;
81656;SDS011;71067;51.482;-0.580;2024-02-04T05:40:39;0.93;;;0.40;;
81656;SDS011;71067;51.482;-0.580;2024-02-04T05:43:05;1.20;;;0.38;;
81656;SDS011;71067;51.482;-0.580;2024-02-04T05:45:35;1.13;;;0.30;;
81656;SDS011;71067;51.482;-0.580;2024-02-04T05:48:02;1.23;;;0.38;;
81656;SDS011;71067;51.482;-0.580;2024-02-04T05:50:27;0.82;;;0.30;;
81656;SDS011;71067;51.482;-0.580;2024-02-04T05:52:53;1.17;;;0.30;;
81656;SDS011;71067;51.482;-0.580;2024-02-04T05:55:18;0.85;;;0.30;;
81656;SDS011;71067;51.482;-0.580;2024-02-04T05:57:44;1.10;;;0.32;;
81656;SDS011;71067;51.482;-0.580;2024-02-04T06:00:09;0.43;;;0.20;;
81656;SDS011;71067;51.482;-0.580;2024-02-04T06:02:35;0.85;;;0.28;;
81656;SDS011;71067;51.482;-0.580;2024-02-04T06:05:01;0.50;;;0.30;;
81656;SDS011;71067;51.482;-0.580;2024-02-04T06:07:27;2.03;;;0.40;;
81656;SDS011;71067;51.482;-0.580;2024-02-04T06:09:53;0.90;;;0.40;;
81656;SDS011;71067;51.482;-0.580;2024-02-04T06:12:20;0.90;;;0.30;;
81656;SDS011;71067;51.482;-0.580;2024-02-04T06:14:46;0.93;;;0.40;;
81656;SDS011;71067;51.482;-0.580;2024-02-04T06:17:11;1.83;;;0.50;;
81656;SDS011;71067;51.482;-0.580;2024-02-04T06:19:37;1.50;;;0.60;;
81656;SDS011;71067;51.482;-0.580;2024-02-04T06:22:02;1.75;;;0.75;;
81656;SDS011;71067;51.482;-0.580;2024-02-04T06:24:27;2.05;;;0.93;;
81656;SDS011;71067;51.482;-0.580;2024-02-04T06:26:53;2.30;;;0.90;;
81656;SDS011;71067;51.482;-0.580;2024-02-04T06:29:18;1.88;;;0.80;;
81656;SDS011;71067;51.482;-0.580;2024-02-04T06:31:44;1.10;;;0.50;;
81656;SDS011;71067;51.482;-0.580;2024-02-04T06:34:11;1.10;;;0.50;;
81656;SDS011;71067;51.482;-0.580;2024-02-04T06:36:36;0.98;;;0.50;;
81656;SDS011;71067;51.482;-0.580;2024-02-04T06:39:02;1.25;;;0.40;;
81656;SDS011;71067;51.482;-0.580;2024-02-04T06:41:27;0.85;;;0.40;;
81656;SDS011;71067;51.482;-0.580;2024-02-04T06:43:52;2.95;;;0.35;;
81656;SDS011;71067;51.482;-0.580;2024-02-04T06:46:25;1.20;;;0.40;;
81656;SDS011;71067;51.482;-0.580;2024-02-04T06:48:51;1.23;;;0.35;;
81656;SDS011;71067;51.482;-0.580;2024-02-04T06:51:16;0.88;;;0.28;;
81656;SDS011;71067;51.482;-0.580;2024-02-04T06:53:41;0.60;;;0.22;;
81656;SDS011;71067;51.482;-0.580;2024-02-04T06:56:09;1.30;;;0.40;;
81656;SDS011;71067;51.482;-0.580;2024-02-04T06:58:37;0.95;;;0.30;;
81656;SDS011;71067;51.482;-0.580;2024-02-04T07:01:02;0.85;;;0.35;;
81656;SDS011;71067;51.482;-0.580;2024-02-04T07:03:28;1.40;;;0.50;;
81656;SDS011;71067;51.482;-0.580;2024-02-04T07:05:57;1.65;;;0.60;;
81656;SDS011;71067;51.482;-0.580;2024-02-04T07:08:22;1.88;;;0.40;;
81656;SDS011;71067;51.482;-0.580;2024-02-04T07:10:48;1.27;;;0.50;;
81656;SDS011;71067;51.482;-0.580;2024-02-04T07:13:14;2.15;;;0.30;;
81656;SDS011;71067;51.482;-0.580;2024-02-04T07:15:39;1.75;;;0.40;;
81656;SDS011;71067;51.482;-0.580;2024-02-04T07:18:04;0.93;;;0.38;;
81656;SDS011;71067;51.482;-0.580;2024-02-04T07:20:30;1.63;;;0.50;;
81656;SDS011;71067;51.482;-0.580;2024-02-04T07:22:55;1.00;;;0.38;;
81656;SDS011;71067;51.482;-0.580;2024-02-04T07:25:23;0.85;;;0.40;;
81656;SDS011;71067;51.482;-0.580;2024-02-04T07:27:49;1.17;;;0.50;;
81656;SDS011;71067;51.482;-0.580;2024-02-04T07:30:14;0.67;;;0.40;;
81656;SDS011;71067;51.482;-0.580;2024-02-04T07:32:43;1.30;;;0.43;;
81656;SDS011;71067;51.482;-0.580;2024-02-04T07:35:09;1.02;;;0.50;;
81656;SDS011;71067;51.482;-0.580;2024-02-04T07:37:35;1.30;;;0.50;;
81656;SDS011;71067;51.482;-0.580;2024-02-04T07:40:00;0.70;;;0.30;;
81656;SDS011;71067;51.482;-0.580;2024-02-04T07:42:26;1.73;;;0.50;;
81656;SDS011;71067;51.482;-0.580;2024-02-04T07:44:54;0.95;;;0.50;;
81656;SDS011;71067;51.482;-0.580;2024-02-04T07:47:20;1.30;;;0.50;;
81656;SDS011;71067;51.482;-0.580;2024-02-04T07:49:46;0.90;;;0.45;;
81656;SDS011;71067;51.482;-0.580;2024-02-04T07:52:13;0.88;;;0.40;;
81656;SDS011;71067;51.482;-0.580;2024-02-04T07:54:41;1.15;;;0.50;;
81656;SDS011;71067;51.482;-0.580;2024-02-04T07:57:08;1.00;;;0.50;;
81656;SDS011;71067;51.482;-0.580;2024-02-04T07:59:34;1.10;;;0.50;;
81656;SDS011;71067;51.482;-0.580;2024-02-04T08:02:00;0.90;;;0.35;;
81656;SDS011;71067;51.482;-0.580;2024-02-04T08:04:25;1.15;;;0.40;;
81656;SDS011;71067;51.482;-0.580;2024-02-04T08:06:54;1.05;;;0.50;;
81656;SDS011;71067;51.482;-0.580;2024-02-04T08:09:19;1.90;;;0.50;;
81656;SDS011;71067;51.482;-0.580;2024-02-04T08:11:45;1.23;;;0.50;;
81656;SDS011;71067;51.482;-0.580;2024-02-04T08:14:14;1.85;;;0.40;;
81656;SDS011;71067;51.482;-0.580;2024-02-04T08:16:39;1.17;;;0.40;;
81656;SDS011;71067;51.482;-0.580;2024-02-04T08:19:08;0.90;;;0.40;;
81656;SDS011;71067;51.482;-0.580;2024-02-04T08:21:33;1.20;;;0.40;;
81656;SDS011;71067;51.482;-0.580;2024-02-04T08:24:01;1.42;;;0.40;;
81656;SDS011;71067;51.482;-0.580;2024-02-04T08:26:27;1.63;;;0.43;;
81656;SDS011;71067;51.482;-0.580;2024-02-04T08:28:53;1.20;;;0.30;;
81656;SDS011;71067;51.482;-0.580;2024-02-04T08:31:18;1.35;;;0.40;;
81656;SDS011;71067;51.482;-0.580;2024-02-04T08:33:44;0.40;;;0.20;;
81656;SDS011;71067;51.482;-0.580;2024-02-04T08:36:09;1.15;;;0.22;;
81656;SDS011;71067;51.482;-0.580;2024-02-04T08:38:37;0.85;;;0.30;;
81656;SDS011;71067;51.482;-0.580;2024-02-04T08:41:03;1.10;;;0.40;;
81656;SDS011;71067;51.482;-0.580;2024-02-04T08:43:29;1.13;;;0.40;;
81656;SDS011;71067;51.482;-0.580;2024-02-04T08:45:54;0.60;;;0.30;;
81656;SDS011;71067;51.482;-0.580;2024-02-04T08:48:20;0.90;;;0.28;;
81656;SDS011;71067;51.482;-0.580;2024-02-04T08:50:45;1.10;;;0.30;;
81656;SDS011;71067;51.482;-0.580;2024-02-04T08:53:11;0.88;;;0.40;;
81656;SDS011;71067;51.482;-0.580;2024-02-04T08:55:37;0.88;;;0.30;;
81656;SDS011;71067;51.482;-0.580;2024-02-04T08:58:02;1.25;;;0.40;;
81656;SDS011;71067;51.482;-0.580;2024-02-04T09:00:27;1.85;;;0.50;;
81656;SDS011;71067;51.482;-0.580;2024-02-04T09:02:56;1.67;;;0.40;;
81656;SDS011;71067;51.482;-0.580;2024-02-04T09:05:22;0.73;;;0.50;;
81656;SDS011;71067;51.482;-0.580;2024-02-04T09:07:50;1.27;;;0.30;;
81656;SDS011;71067;51.482;-0.580;2024-02-04T09:10:17;1.10;;;0.30;;
81656;SDS011;71067;51.482;-0.580;2024-02-04T09:12:43;2.33;;;0.38;;
81656;SDS011;71067;51.482;-0.580;2024-02-04T09:15:08;1.95;;;0.50;;
81656;SDS011;71067;51.482;-0.580;2024-02-04T09:17:34;2.08;;;0.40;;
81656;SDS011;71067;51.482;-0.580;2024-02-04T09:20:04;2.10;;;0.43;;
81656;SDS011;71067;51.482;-0.580;2024-02-04T09:22:33;0.98;;;0.30;;
81656;SDS011;71067;51.482;-0.580;2024-02-04T09:24:59;0.93;;;0.35;;
81656;SDS011;71067;51.482;-0.580;2024-02-04T09:27:27;0.90;;;0.40;;
81656;SDS011;71067;51.482;-0.580;2024-02-04T09:29:53;0.95;;;0.57;;
81656;SDS011;71067;51.482;-0.580;2024-02-04T09:32:20;1.30;;;0.40;;
81656;SDS011;71067;51.482;-0.580;2024-02-04T09:34:45;0.82;;;0.30;;
81656;SDS011;71067;51.482;-0.580;2024-02-04T09:37:10;1.00;;;0.40;;
81656;SDS011;71067;51.482;-0.580;2024-02-04T09:39:36;1.23;;;0.30;;
81656;SDS011;71067;51.482;-0.580;2024-02-04T09:42:01;1.65;;;0.40;;
81656;SDS011;71067;51.482;-0.580;2024-02-04T09:44:27;1.00;;;0.30;;
81656;SDS011;71067;51.482;-0.580;2024-02-04T09:46:53;1.00;;;0.40;;
81656;SDS011;71067;51.482;-0.580;2024-02-04T09:49:21;2.38;;;0.40;;
81656;SDS011;71067;51.482;-0.580;2024-02-04T09:52:07;1.50;;;0.50;;
81656;SDS011;71067;51.482;-0.580;2024-02-04T09:54:59;1.17;;;0.38;;
81656;SDS011;71067;51.482;-0.580;2024-02-04T09:57:32;1.40;;;0.50;;
81656;SDS011;71067;51.482;-0.580;2024-02-04T10:00:01;1.65;;;0.40;;
81656;SDS011;71067;51.482;-0.580;2024-02-04T10:04:55;2.13;;;0.60;;
81656;SDS011;71067;51.482;-0.580;2024-02-04T10:07:24;1.15;;;0.50;;
81656;SDS011;71067;51.482;-0.580;2024-02-04T10:09:52;2.75;;;0.57;;
81656;SDS011;71067;51.482;-0.580;2024-02-04T10:12:23;1.38;;;0.50;;
81656;SDS011;71067;51.482;-0.580;2024-02-04T10:14:48;2.13;;;0.60;;
81656;SDS011;71067;51.482;-0.580;2024-02-04T10:20:37;2.45;;;0.70;;
81656;SDS011;71067;51.482;-0.580;2024-02-04T10:23:03;2.15;;;0.50;;
81656;SDS011;71067;51.482;-0.580;2024-02-04T10:25:34;2.30;;;0.73;;
81656;SDS011;71067;51.482;-0.580;2024-02-04T10:30:59;3.55;;;0.68;;
81656;SDS011;71067;51.482;-0.580;2024-02-04T10:33:24;2.33;;;0.70;;
81656;SDS011;71067;51.482;-0.580;2024-02-04T10:35:50;2.45;;;0.75;;
81656;SDS011;71067;51.482;-0.580;2024-02-04T10:38:16;3.33;;;0.80;;
81656;SDS011;71067;51.482;-0.580;2024-02-04T10:40:41;3.30;;;0.75;;
81656;SDS011;71067;51.482;-0.580;2024-02-04T10:43:07;1.67;;;0.57;;
81656;SDS011;71067;51.482;-0.580;2024-02-04T10:45:37;3.25;;;0.80;;
81656;SDS011;71067;51.482;-0.580;2024-02-04T10:48:04;1.35;;;0.60;;
81656;SDS011;71067;51.482;-0.580;2024-02-04T10:50:32;2.90;;;0.75;;
81656;SDS011;71067;51.482;-0.580;2024-02-04T10:53:03;3.90;;;0.90;;
81656;SDS011;71067;51.482;-0.580;2024-02-04T10:55:32;2.72;;;0.75;;
81656;SDS011;71067;51.482;-0.580;2024-02-04T10:58:04;3.47;;;0.70;;
81656;SDS011;71067;51.482;-0.580;2024-02-04T11:00:30;1.95;;;0.68;;
81656;SDS011;71067;51.482;-0.580;2024-02-04T11:02:56;2.60;;;0.77;;
81656;SDS011;71067;51.482;-0.580;2024-02-04T11:05:23;3.55;;;0.80;;
81656;SDS011;71067;51.482;-0.580;2024-02-04T11:07:50;2.30;;;0.63;;
81656;SDS011;71067;51.482;-0.580;2024-02-04T11:10:16;2.53;;;0.90;;
81656;SDS011;71067;51.482;-0.580;2024-02-04T11:12:45;3.63;;;0.88;;
81656;SDS011;71067;51.482;-0.580;2024-02-04T11:15:13;3.28;;;0.88;;
81656;SDS011;71067;51.482;-0.580;2024-02-04T11:26:26;3.25;;;0.63;;
81656;SDS011;71067;51.482;-0.580;2024-02-04T11:28:55;4.97;;;0.80;;
81656;SDS011;71067;51.482;-0.580;2024-02-04T11:31:21;4.13;;;0.88;;
81656;SDS011;71067;51.482;-0.580;2024-02-04T11:33:47;3.22;;;1.00;;
81656;SDS011;71067;51.482;-0.580;2024-02-04T11:36:16;3.17;;;0.70;;
81656;SDS011;71067;51.482;-0.580;2024-02-04T11:38:43;3.72;;;0.60;;
81656;SDS011;71067;51.482;-0.580;2024-02-04T11:41:20;3.13;;;0.88;;
81656;SDS011;71067;51.482;-0.580;2024-02-04T11:43:47;3.75;;;0.88;;
81656;SDS011;71067;51.482;-0.580;2024-02-04T11:46:16;3.55;;;0.95;;
81656;SDS011;71067;51.482;-0.580;2024-02-04T11:48:50;2.55;;;0.60;;
81656;SDS011;71067;51.482;-0.580;2024-02-04T11:51:16;3.15;;;0.75;;
81656;SDS011;71067;51.482;-0.580;2024-02-04T11:53:42;4.47;;;0.80;;
81656;SDS011;71067;51.482;-0.580;2024-02-04T11:56:08;2.35;;;0.93;;
81656;SDS011;71067;51.482;-0.580;2024-02-04T11:58:35;2.35;;;0.80;;
81656;SDS011;71067;51.482;-0.580;2024-02-04T12:01:01;4.40;;;0.77;;
81656;SDS011;71067;51.482;-0.580;2024-02-04T12:03:31;2.92;;;0.70;;
81656;SDS011;71067;51.482;-0.580;2024-02-04T12:05:58;2.05;;;0.60;;
81656;SDS011;71067;51.482;-0.580;2024-02-04T12:08:24;2.83;;;0.60;;
81656;SDS011;71067;51.482;-0.580;2024-02-04T12:10:53;2.20;;;0.77;;
81656;SDS011;71067;51.482;-0.580;2024-02-04T12:13:19;2.20;;;0.70;;
81656;SDS011;71067;51.482;-0.580;2024-02-04T12:15:46;2.53;;;0.70;;
81656;SDS011;71067;51.482;-0.580;2024-02-04T12:18:12;2.78;;;0.65;;
81656;SDS011;71067;51.482;-0.580;2024-02-04T12:20:45;2.22;;;0.57;;
81656;SDS011;71067;51.482;-0.580;2024-02-04T12:23:12;2.33;;;0.50;;
81656;SDS011;71067;51.482;-0.580;2024-02-04T12:25:40;3.10;;;0.60;;
81656;SDS011;71067;51.482;-0.580;2024-02-04T12:28:06;2.70;;;0.60;;
81656;SDS011;71067;51.482;-0.580;2024-02-04T12:30:34;2.45;;;0.57;;
81656;SDS011;71067;51.482;-0.580;2024-02-04T12:33:01;2.42;;;0.47;;
81656;SDS011;71067;51.482;-0.580;2024-02-04T12:35:29;1.38;;;0.30;;
81656;SDS011;71067;51.482;-0.580;2024-02-04T12:37:58;3.40;;;0.70;;
81656;SDS011;71067;51.482;-0.580;2024-02-04T12:40:31;2.72;;;0.50;;
81656;SDS011;71067;51.482;-0.580;2024-02-04T12:42:58;1.17;;;0.30;;
81656;SDS011;71067;51.482;-0.580;2024-02-04T12:45:26;1.05;;;0.40;;
81656;SDS011;71067;51.482;-0.580;2024-02-04T12:47:53;1.80;;;0.50;;
81656;SDS011;71067;51.482;-0.580;2024-02-04T12:50:19;1.13;;;0.38;;
81656;SDS011;71067;51.482;-0.580;2024-02-04T12:52:49;1.20;;;0.50;;
81656;SDS011;71067;51.482;-0.580;2024-02-04T12:55:26;1.08;;;0.32;;
81656;SDS011;71067;51.482;-0.580;2024-02-04T13:00:32;2.17;;;0.50;;
81656;SDS011;71067;51.482;-0.580;2024-02-04T13:02:58;3.38;;;0.50;;
81656;SDS011;71067;51.482;-0.580;2024-02-04T13:05:24;1.33;;;0.40;;
81656;SDS011;71067;51.482;-0.580;2024-02-04T13:07:54;2.85;;;0.60;;
81656;SDS011;71067;51.482;-0.580;2024-02-04T13:10:22;3.47;;;0.63;;
81656;SDS011;71067;51.482;-0.580;2024-02-04T13:13:03;3.42;;;0.70;;
81656;SDS011;71067;51.482;-0.580;2024-02-04T13:15:37;2.22;;;0.60;;
81656;SDS011;71067;51.482;-0.580;2024-02-04T13:18:04;1.25;;;0.40;;
81656;SDS011;71067;51.482;-0.580;2024-02-04T13:20:30;2.20;;;0.50;;
81656;SDS011;71067;51.482;-0.580;2024-02-04T13:22:55;2.40;;;0.60;;
81656;SDS011;71067;51.482;-0.580;2024-02-04T13:25:25;4.82;;;0.60;;
81656;SDS011;71067;51.482;-0.580;2024-02-04T13:27:50;2.95;;;0.68;;
81656;SDS011;71067;51.482;-0.580;2024-02-04T13:30:17;1.60;;;0.40;;
81656;SDS011;71067;51.482;-0.580;2024-02-04T13:32:43;1.52;;;0.40;;
81656;SDS011;71067;51.482;-0.580;2024-02-04T13:35:09;2.33;;;0.50;;
81656;SDS011;71067;51.482;-0.580;2024-02-04T13:37:44;1.85;;;0.40;;
81656;SDS011;71067;51.482;-0.580;2024-02-04T13:40:13;0.82;;;0.40;;
81656;SDS011;71067;51.482;-0.580;2024-02-04T13:42:39;1.23;;;0.30;;
81656;SDS011;71067;51.482;-0.580;2024-02-04T13:45:05;2.13;;;0.30;;
81656;SDS011;71067;51.482;-0.580;2024-02-04T13:47:41;1.63;;;0.40;;
81656;SDS011;71067;51.482;-0.580;2024-02-04T13:50:10;1.20;;;0.55;;
81656;SDS011;71067;51.482;-0.580;2024-02-04T13:52:35;1.60;;;0.40;;
81656;SDS011;71067;51.482;-0.580;2024-02-04T13:55:01;1.00;;;0.40;;
81656;SDS011;71067;51.482;-0.580;2024-02-04T13:57:30;1.48;;;0.40;;
81656;SDS011;71067;51.482;-0.580;2024-02-04T13:59:58;1.85;;;0.40;;
81656;SDS011;71067;51.482;-0.580;2024-02-04T14:02:24;1.95;;;0.50;;
81656;SDS011;71067;51.482;-0.580;2024-02-04T14:04:51;2.60;;;0.40;;
81656;SDS011;71067;51.482;-0.580;2024-02-04T14:07:17;1.05;;;0.50;;
81656;SDS011;71067;51.482;-0.580;2024-02-04T14:09:46;2.75;;;0.50;;
81656;SDS011;71067;51.482;-0.580;2024-02-04T14:12:11;1.55;;;0.40;;
81656;SDS011;71067;51.482;-0.580;2024-02-04T14:14:38;1.63;;;0.47;;
81656;SDS011;71067;51.482;-0.580;2024-02-04T14:17:04;3.35;;;0.90;;
81656;SDS011;71067;51.482;-0.580;2024-02-04T14:19:30;2.00;;;0.50;;
81656;SDS011;71067;51.482;-0.580;2024-02-04T14:21:55;1.13;;;0.40;;
81656;SDS011;71067;51.482;-0.580;2024-02-04T14:24:23;2.03;;;0.57;;
81656;SDS011;71067;51.482;-0.580;2024-02-04T14:26:55;2.80;;;0.45;;
81656;SDS011;71067;51.482;-0.580;2024-02-04T14:29:24;1.48;;;0.45;;
81656;SDS011;71067;51.482;-0.580;2024-02-04T14:31:50;1.98;;;0.50;;
81656;SDS011;71067;51.482;-0.580;2024-02-04T14:34:21;1.63;;;0.55;;
81656;SDS011;71067;51.482;-0.580;2024-02-04T14:36:51;1.67;;;0.50;;
81656;SDS011;71067;51.482;-0.580;2024-02-04T14:39:17;1.70;;;0.40;;
81656;SDS011;71067;51.482;-0.580;2024-02-04T14:41:43;1.52;;;0.50;;
81656;SDS011;71067;51.482;-0.580;2024-02-04T14:44:09;2.08;;;0.60;;
81656;SDS011;71067;51.482;-0.580;2024-02-04T14:46:36;2.25;;;0.63;;
81656;SDS011;71067;51.482;-0.580;2024-02-04T14:49:02;1.38;;;0.40;;
81656;SDS011;71067;51.482;-0.580;2024-02-04T14:51:31;1.10;;;0.40;;
81656;SDS011;71067;51.482;-0.580;2024-02-04T14:53:57;1.88;;;0.50;;
81656;SDS011;71067;51.482;-0.580;2024-02-04T14:56:23;1.08;;;0.45;;
81656;SDS011;71067;51.482;-0.580;2024-02-04T14:58:51;1.67;;;0.38;;
81656;SDS011;71067;51.482;-0.580;2024-02-04T15:01:20;1.25;;;0.70;;
81656;SDS011;71067;51.482;-0.580;2024-02-04T15:03:46;1.30;;;0.60;;